Time,TemperatureF,DewpointF,PressureIn,WindDirection,WindDirectionDegrees,WindSpeedMPH,WindSpeedGustMPH,Humidity,HourlyPrecipIn,Conditions,Clouds,dailyrainin,SoftwareType,DateUTC
2013-01-31 00:00:00,54.4,52.9,29.01,WSW,248,6.3,6.3,95,0.14,,,0.00,WUHU216HW,2013-01-31 05:00:00,
2013-01-31 00:02:00,54.4,52.9,29.01,WSW,248,6.3,6.3,95,0.14,,,0.00,WUHU216HW,2013-01-31 05:02:00,
2013-01-31 00:03:00,54.4,52.9,29.01,WSW,248,6.3,6.3,95,0.14,,,0.00,WUHU216HW,2013-01-31 05:03:00,
2013-01-31 00:08:00,54.4,52.9,29.01,WSW,248,6.3,6.3,95,0.14,,,0.00,WUHU216HW,2013-01-31 05:08:00,
2013-01-31 00:30:00,53.8,50.1,28.95,WSW,248,4.7,4.7,87,0.03,,,0.00,WUHU216HW,2013-01-31 05:30:00,
2013-01-31 00:35:00,53.8,50.1,28.95,WSW,248,4.7,4.7,87,0.03,,,0.00,WUHU216HW,2013-01-31 05:35:00,
2013-01-31 01:00:00,52.6,49.4,28.96,SSW,203,1.8,1.8,89,0.04,,,0.02,WUHU216HW,2013-01-31 06:00:00,
2013-01-31 01:05:00,52.6,49.4,28.96,SSW,203,1.8,1.8,89,0.04,,,0.02,WUHU216HW,2013-01-31 06:05:00,
2013-01-31 01:30:00,51.8,48.7,28.94,South,180,3.4,3.4,89,0.03,,,0.04,WUHU216HW,2013-01-31 06:30:00,
2013-01-31 01:35:00,51.8,48.7,28.94,South,180,3.4,3.4,89,0.03,,,0.04,WUHU216HW,2013-01-31 06:35:00,
2013-01-31 02:00:00,51.3,47.8,28.96,WSW,248,3.4,3.4,88,0.02,,,0.05,WUHU216HW,2013-01-31 07:00:00,
2013-01-31 02:05:00,51.3,47.8,28.96,WSW,248,3.4,3.4,88,0.02,,,0.05,WUHU216HW,2013-01-31 07:05:00,
2013-01-31 02:30:00,50.2,45.2,28.96,SSW,203,5.1,5.1,83,0.01,,,0.06,WUHU216HW,2013-01-31 07:30:00,
2013-01-31 02:35:00,50.2,45.2,28.96,SSW,203,5.1,5.1,83,0.01,,,0.06,WUHU216HW,2013-01-31 07:35:00,
2013-01-31 03:00:00,47.2,41.3,29.00,SSE,158,2.5,2.5,80,0.00,,,0.06,WUHU216HW,2013-01-31 08:00:00,
2013-01-31 03:05:00,47.2,41.3,29.00,SSE,158,2.5,2.5,80,0.00,,,0.06,WUHU216HW,2013-01-31 08:05:00,
2013-01-31 03:30:00,45.7,38.3,29.02,WNW,293,2.7,2.7,75,0.00,,,0.06,WUHU216HW,2013-01-31 08:30:00,
2013-01-31 03:35:00,45.7,38.3,29.02,WNW,293,2.7,2.7,75,0.00,,,0.06,WUHU216HW,2013-01-31 08:35:00,
2013-01-31 04:00:00,45.0,36.8,29.04,NW,315,0.7,0.7,73,0.00,,,0.06,WUHU216HW,2013-01-31 09:00:00,
2013-01-31 04:05:00,45.0,36.8,29.04,NW,315,0.7,0.7,73,0.00,,,0.06,WUHU216HW,2013-01-31 09:05:00,
2013-01-31 04:30:00,43.4,34.7,29.07,WSW,248,3.1,3.1,71,0.00,,,0.06,WUHU216HW,2013-01-31 09:30:00,
2013-01-31 04:35:00,43.4,34.7,29.07,WSW,248,3.1,3.1,71,0.00,,,0.06,WUHU216HW,2013-01-31 09:35:00,
2013-01-31 05:00:00,41.8,30.9,29.10,SSE,158,3.6,3.6,65,0.00,,,0.06,WUHU216HW,2013-01-31 10:00:00,
2013-01-31 05:05:00,41.8,30.9,29.10,SSE,158,3.6,3.6,65,0.00,,,0.06,WUHU216HW,2013-01-31 10:05:00,
2013-01-31 05:30:00,40.7,29.8,29.13,West,270,7.4,7.4,65,0.00,,,0.06,WUHU216HW,2013-01-31 10:30:00,
2013-01-31 05:35:00,40.7,29.8,29.13,West,270,7.4,7.4,65,0.00,,,0.06,WUHU216HW,2013-01-31 10:35:00,
2013-01-31 06:00:00,38.3,29.4,29.16,SSW,203,8.5,8.5,70,0.00,,,0.06,WUHU216HW,2013-01-31 11:00:00,
2013-01-31 06:05:00,38.3,29.4,29.16,SSW,203,8.5,8.5,70,0.00,,,0.06,WUHU216HW,2013-01-31 11:05:00,
2013-01-31 06:30:00,37.1,27.6,29.20,WSW,248,4.7,4.7,68,0.00,,,0.06,WUHU216HW,2013-01-31 11:30:00,
2013-01-31 06:35:00,37.1,27.6,29.20,WSW,248,4.7,4.7,68,0.00,,,0.06,WUHU216HW,2013-01-31 11:35:00,
2013-01-31 07:00:00,36.2,25.9,29.22,West,270,2.9,2.9,66,0.00,,,0.06,WUHU216HW,2013-01-31 12:00:00,
2013-01-31 07:05:00,36.2,25.9,29.22,West,270,2.9,2.9,66,0.00,,,0.06,WUHU216HW,2013-01-31 12:05:00,
2013-01-31 07:30:00,34.9,24.7,29.24,WNW,293,2.2,2.2,66,0.00,,,0.06,WUHU216HW,2013-01-31 12:30:00,
2013-01-31 07:35:00,34.9,24.7,29.24,WNW,293,2.2,2.2,66,0.00,,,0.06,WUHU216HW,2013-01-31 12:35:00,
2013-01-31 08:00:00,37.1,26.7,29.26,NNW,338,3.8,3.8,66,0.00,,,0.06,WUHU216HW,2013-01-31 13:00:00,
2013-01-31 08:05:00,37.1,26.7,29.26,NNW,338,3.8,3.8,66,0.00,,,0.06,WUHU216HW,2013-01-31 13:05:00,
2013-01-31 08:30:00,36.2,25.2,29.27,WSW,248,4.5,4.5,64,0.00,,,0.06,WUHU216HW,2013-01-31 13:30:00,
2013-01-31 08:35:00,36.2,25.2,29.27,WSW,248,4.5,4.5,64,0.00,,,0.06,WUHU216HW,2013-01-31 13:35:00,
2013-01-31 09:00:00,37.3,24.2,29.30,WSW,248,9.8,9.8,59,0.00,,,0.06,WUHU216HW,2013-01-31 14:00:00,
2013-01-31 09:05:00,37.3,24.2,29.30,WSW,248,9.8,9.8,59,0.00,,,0.06,WUHU216HW,2013-01-31 14:05:00,
2013-01-31 09:30:00,39.6,26.4,29.32,SSW,203,1.8,1.8,59,0.00,,,0.06,WUHU216HW,2013-01-31 14:30:00,
2013-01-31 09:35:00,39.6,26.4,29.32,SSW,203,1.8,1.8,59,0.00,,,0.06,WUHU216HW,2013-01-31 14:35:00,
2013-01-31 10:00:00,38.3,23.0,29.34,WSW,248,4.5,4.5,54,0.00,,,0.06,WUHU216HW,2013-01-31 15:00:00,
2013-01-31 10:05:00,38.3,23.0,29.34,WSW,248,4.5,4.5,54,0.00,,,0.06,WUHU216HW,2013-01-31 15:05:00,
2013-01-31 10:30:00,39.2,22.6,29.35,WNW,293,5.6,5.6,51,0.00,,,0.06,WUHU216HW,2013-01-31 15:30:00,
2013-01-31 10:35:00,39.2,22.6,29.35,WNW,293,5.6,5.6,51,0.00,,,0.06,WUHU216HW,2013-01-31 15:35:00,
2013-01-31 11:00:00,38.2,21.2,29.36,NW,315,8.9,8.9,50,0.00,,,0.06,WUHU216HW,2013-01-31 16:00:00,
2013-01-31 11:05:00,38.2,21.2,29.36,NW,315,8.9,8.9,50,0.00,,,0.06,WUHU216HW,2013-01-31 16:05:00,
2013-01-31 11:30:00,40.0,22.8,29.37,NW,315,4.5,4.5,50,0.00,,,0.06,WUHU216HW,2013-01-31 16:30:00,
2013-01-31 11:35:00,40.0,22.8,29.37,NW,315,4.5,4.5,50,0.00,,,0.06,WUHU216HW,2013-01-31 16:35:00,
2013-01-31 12:00:00,38.0,23.6,29.39,SW,225,7.2,7.2,56,0.00,,,0.06,WUHU216HW,2013-01-31 17:00:00,
2013-01-31 12:05:00,38.0,23.6,29.39,SW,225,7.2,7.2,56,0.00,,,0.06,WUHU216HW,2013-01-31 17:05:00,
2013-01-31 12:30:00,40.0,22.2,29.39,WSW,248,7.6,7.6,49,0.00,,,0.06,WUHU216HW,2013-01-31 17:30:00,
2013-01-31 12:35:00,40.0,22.2,29.39,WSW,248,7.6,7.6,49,0.00,,,0.06,WUHU216HW,2013-01-31 17:35:00,
2013-01-31 13:00:00,37.8,19.8,29.38,West,270,7.6,7.6,48,0.00,,,0.06,WUHU216HW,2013-01-31 18:00:00,
2013-01-31 13:05:00,37.8,19.8,29.38,West,270,7.6,7.6,48,0.00,,,0.06,WUHU216HW,2013-01-31 18:05:00,
2013-01-31 13:30:00,37.4,20.5,29.38,WNW,293,6.9,6.9,50,0.00,,,0.06,WUHU216HW,2013-01-31 18:30:00,
2013-01-31 13:35:00,37.4,20.5,29.38,WNW,293,6.9,6.9,50,0.00,,,0.06,WUHU216HW,2013-01-31 18:35:00,
2013-01-31 14:00:00,37.4,19.0,29.40,WSW,248,8.7,8.7,47,0.00,,,0.06,WUHU216HW,2013-01-31 19:00:00,
2013-01-31 14:05:00,37.4,19.0,29.40,WSW,248,8.7,8.7,47,0.00,,,0.06,WUHU216HW,2013-01-31 19:05:00,
2013-01-31 14:30:00,36.2,19.4,29.40,WSW,248,6.7,6.7,50,0.00,,,0.06,WUHU216HW,2013-01-31 19:30:00,
2013-01-31 14:35:00,36.2,19.4,29.40,WSW,248,6.7,6.7,50,0.00,,,0.06,WUHU216HW,2013-01-31 19:35:00,
2013-01-31 15:00:00,34.9,19.4,29.42,SSW,203,6.3,6.3,53,0.00,,,0.06,WUHU216HW,2013-01-31 20:00:00,
2013-01-31 15:05:00,34.9,19.4,29.42,SSW,203,6.3,6.3,53,0.00,,,0.06,WUHU216HW,2013-01-31 20:05:00,
2013-01-31 15:30:00,34.4,21.1,29.43,WSW,248,4.5,4.5,58,0.00,,,0.06,WUHU216HW,2013-01-31 20:30:00,
2013-01-31 15:35:00,34.4,21.1,29.43,WSW,248,4.5,4.5,58,0.00,,,0.06,WUHU216HW,2013-01-31 20:35:00,
2013-01-31 16:00:00,34.4,20.7,29.45,West,270,3.1,3.1,57,0.00,,,0.06,WUHU216HW,2013-01-31 21:00:00,
2013-01-31 16:05:00,34.4,20.7,29.45,West,270,3.1,3.1,57,0.00,,,0.06,WUHU216HW,2013-01-31 21:05:00,
2013-01-31 16:30:00,34.9,18.6,29.45,WNW,293,5.8,5.8,51,0.00,,,0.06,WUHU216HW,2013-01-31 21:30:00,
2013-01-31 16:35:00,34.9,18.6,29.45,WNW,293,5.8,5.8,51,0.00,,,0.06,WUHU216HW,2013-01-31 21:35:00,
2013-01-31 17:00:00,33.5,17.2,29.47,WNW,293,2.5,2.5,51,0.00,,,0.06,WUHU216HW,2013-01-31 22:00:00,
2013-01-31 17:05:00,33.5,17.2,29.47,WNW,293,2.5,2.5,51,0.00,,,0.06,WUHU216HW,2013-01-31 22:05:00,
2013-01-31 17:30:00,32.8,17.0,29.49,SW,225,4.9,4.9,52,0.00,,,0.06,WUHU216HW,2013-01-31 22:30:00,
2013-01-31 17:35:00,32.8,17.0,29.49,SW,225,4.9,4.9,52,0.00,,,0.06,WUHU216HW,2013-01-31 22:35:00,
2013-01-31 18:00:00,32.0,17.2,29.50,WNW,293,2.5,2.5,54,0.00,,,0.06,WUHU216HW,2013-01-31 23:00:00,
2013-01-31 18:05:00,32.0,17.2,29.50,WNW,293,2.5,2.5,54,0.00,,,0.06,WUHU216HW,2013-01-31 23:05:00,
2013-01-31 18:30:00,31.7,18.5,29.51,WSW,248,2.0,2.0,58,0.00,,,0.06,WUHU216HW,2013-01-31 23:30:00,
2013-01-31 18:35:00,31.7,18.5,29.51,WSW,248,2.0,2.0,58,0.00,,,0.06,WUHU216HW,2013-01-31 23:35:00,
2013-01-31 19:00:00,30.2,18.7,29.52,NW,315,0.4,0.4,62,0.00,,,0.06,WUHU216HW,2013-02-01 00:00:00,
2013-01-31 19:05:00,30.2,18.7,29.52,NW,315,0.4,0.4,62,0.00,,,0.06,WUHU216HW,2013-02-01 00:05:00,
2013-01-31 19:30:00,30.1,18.9,29.51,SSW,203,0.0,0.0,63,0.00,,,0.06,WUHU216HW,2013-02-01 00:30:00,
2013-01-31 19:35:00,30.1,18.9,29.51,SSW,203,0.0,0.0,63,0.00,,,0.06,WUHU216HW,2013-02-01 00:35:00,
2013-01-31 20:00:00,29.9,17.3,29.51,SSE,158,2.9,2.9,59,0.00,,,0.06,WUHU216HW,2013-02-01 01:00:00,
2013-01-31 20:05:00,29.9,17.3,29.51,SSE,158,2.9,2.9,59,0.00,,,0.06,WUHU216HW,2013-02-01 01:05:00,
2013-01-31 20:30:00,29.9,15.6,29.52,SSE,158,3.6,3.6,55,0.00,,,0.06,WUHU216HW,2013-02-01 01:30:00,
2013-01-31 20:35:00,29.9,15.6,29.52,SSE,158,3.6,3.6,55,0.00,,,0.06,WUHU216HW,2013-02-01 01:35:00,
2013-01-31 21:00:00,29.9,15.6,29.52,NW,315,2.7,2.7,55,0.00,,,0.06,WUHU216HW,2013-02-01 02:00:00,
2013-01-31 21:05:00,29.9,15.6,29.52,NW,315,2.7,2.7,55,0.00,,,0.06,WUHU216HW,2013-02-01 02:05:00,
2013-01-31 21:30:00,29.5,15.7,29.52,WNW,293,1.1,1.1,56,0.00,,,0.06,WUHU216HW,2013-02-01 02:30:00,
2013-01-31 21:35:00,29.5,15.7,29.52,WNW,293,1.1,1.1,56,0.00,,,0.06,WUHU216HW,2013-02-01 02:35:00,
2013-01-31 22:00:00,29.3,15.9,29.51,SW,225,2.0,2.0,57,0.00,,,0.06,WUHU216HW,2013-02-01 03:00:00,
2013-01-31 22:05:00,29.3,15.9,29.51,SW,225,2.0,2.0,57,0.00,,,0.06,WUHU216HW,2013-02-01 03:05:00,
2013-01-31 22:30:00,29.7,16.3,29.52,SSW,203,0.9,0.9,57,0.00,,,0.06,WUHU216HW,2013-02-01 03:30:00,
2013-01-31 22:35:00,29.7,16.3,29.52,SSW,203,0.9,0.9,57,0.00,,,0.06,WUHU216HW,2013-02-01 03:35:00,
2013-01-31 23:00:00,29.5,16.6,29.51,SSW,203,1.8,1.8,58,0.00,,,0.06,WUHU216HW,2013-02-01 04:00:00,
2013-01-31 23:05:00,29.5,16.6,29.51,SSW,203,1.8,1.8,58,0.00,,,0.06,WUHU216HW,2013-02-01 04:05:00,
2013-01-31 23:30:00,28.4,16.4,29.50,West,270,0.0,0.0,60,0.00,,,0.06,WUHU216HW,2013-02-01 04:30:00,
2013-01-31 23:35:00,28.4,16.4,29.50,West,270,0.0,0.0,60,0.00,,,0.06,WUHU216HW,2013-02-01 04:35:00,